sensor_id;sensor_type;location;lat;lon;timestamp;temperature;humidity
15203;DHT22;7702;51.046;5.184;2023-09-19T00:00:38;15.50;99.90
15203;DHT22;7702;51.046;5.184;2023-09-19T00:03:06;15.40;99.90
15203;DHT22;7702;51.046;5.184;2023-09-19T00:05:35;15.50;99.90
15203;DHT22;7702;51.046;5.184;2023-09-19T00:08:01;15.40;99.90
15203;DHT22;7702;51.046;5.184;2023-09-19T00:10:32;15.50;99.90
15203;DHT22;7702;51.046;5.184;2023-09-19T00:13:01;15.50;99.90
15203;DHT22;7702;51.046;5.184;2023-09-19T00:15:42;15.40;99.90
15203;DHT22;7702;51.046;5.184;2023-09-19T00:18:08;15.40;99.90
15203;DHT22;7702;51.046;5.184;2023-09-19T00:20:37;15.40;99.90
15203;DHT22;7702;51.046;5.184;2023-09-19T00:23:04;15.40;99.90
15203;DHT22;7702;51.046;5.184;2023-09-19T00:25:30;15.40;99.90
15203;DHT22;7702;51.046;5.184;2023-09-19T00:27:57;15.40;99.90
15203;DHT22;7702;51.046;5.184;2023-09-19T00:30:23;15.30;99.90
15203;DHT22;7702;51.046;5.184;2023-09-19T00:32:50;15.40;99.90
15203;DHT22;7702;51.046;5.184;2023-09-19T00:35:20;15.40;99.90
15203;DHT22;7702;51.046;5.184;2023-09-19T00:37:49;15.30;99.90
15203;DHT22;7702;51.046;5.184;2023-09-19T00:40:15;15.30;99.90
15203;DHT22;7702;51.046;5.184;2023-09-19T00:42:42;15.40;99.90
15203;DHT22;7702;51.046;5.184;2023-09-19T00:45:08;15.40;99.90
15203;DHT22;7702;51.046;5.184;2023-09-19T00:47:41;15.30;99.90
15203;DHT22;7702;51.046;5.184;2023-09-19T00:50:08;15.30;99.90
15203;DHT22;7702;51.046;5.184;2023-09-19T00:52:35;15.40;99.90
15203;DHT22;7702;51.046;5.184;2023-09-19T00:55:08;15.40;99.90
15203;DHT22;7702;51.046;5.184;2023-09-19T00:57:34;15.40;99.90
15203;DHT22;7702;51.046;5.184;2023-09-19T01:00:02;15.40;99.90
15203;DHT22;7702;51.046;5.184;2023-09-19T01:02:32;15.40;99.90
15203;DHT22;7702;51.046;5.184;2023-09-19T01:04:59;15.30;99.90
15203;DHT22;7702;51.046;5.184;2023-09-19T01:07:26;15.30;99.90
15203;DHT22;7702;51.046;5.184;2023-09-19T01:09:51;15.30;99.90
15203;DHT22;7702;51.046;5.184;2023-09-19T01:12:24;15.30;99.90
15203;DHT22;7702;51.046;5.184;2023-09-19T01:15:06;15.30;99.90
15203;DHT22;7702;51.046;5.184;2023-09-19T01:17:53;15.20;99.90
15203;DHT22;7702;51.046;5.184;2023-09-19T01:20:37;15.20;99.90
15203;DHT22;7702;51.046;5.184;2023-09-19T01:23:11;15.30;99.90
15203;DHT22;7702;51.046;5.184;2023-09-19T01:30:52;15.20;99.90
15203;DHT22;7702;51.046;5.184;2023-09-19T01:33:23;15.10;99.90
15203;DHT22;7702;51.046;5.184;2023-09-19T01:35:49;15.10;99.90
15203;DHT22;7702;51.046;5.184;2023-09-19T01:38:16;15.20;99.90
15203;DHT22;7702;51.046;5.184;2023-09-19T01:40:43;15.20;99.90
15203;DHT22;7702;51.046;5.184;2023-09-19T01:48:21;15.10;99.90
15203;DHT22;7702;51.046;5.184;2023-09-19T01:53:30;15.00;99.90
15203;DHT22;7702;51.046;5.184;2023-09-19T01:55:59;15.00;99.90
15203;DHT22;7702;51.046;5.184;2023-09-19T02:00:53;14.90;99.90
15203;DHT22;7702;51.046;5.184;2023-09-19T02:03:21;14.80;99.90
15203;DHT22;7702;51.046;5.184;2023-09-19T02:05:51;14.80;99.90
15203;DHT22;7702;51.046;5.184;2023-09-19T02:08:18;14.80;99.90
15203;DHT22;7702;51.046;5.184;2023-09-19T02:10:45;14.70;99.90
15203;DHT22;7702;51.046;5.184;2023-09-19T02:13:18;14.70;99.90
15203;DHT22;7702;51.046;5.184;2023-09-19T02:15:45;14.60;99.90
15203;DHT22;7702;51.046;5.184;2023-09-19T02:18:12;14.60;99.90
15203;DHT22;7702;51.046;5.184;2023-09-19T02:20:38;14.50;99.90
15203;DHT22;7702;51.046;5.184;2023-09-19T02:23:04;14.50;99.90
15203;DHT22;7702;51.046;5.184;2023-09-19T02:25:30;14.60;99.90
15203;DHT22;7702;51.046;5.184;2023-09-19T02:27:57;14.50;99.90
15203;DHT22;7702;51.046;5.184;2023-09-19T02:30:24;14.60;99.90
15203;DHT22;7702;51.046;5.184;2023-09-19T02:32:51;14.50;99.90
15203;DHT22;7702;51.046;5.184;2023-09-19T02:35:17;14.60;99.90
15203;DHT22;7702;51.046;5.184;2023-09-19T02:37:47;14.60;99.90
15203;DHT22;7702;51.046;5.184;2023-09-19T02:40:12;14.60;99.90
15203;DHT22;7702;51.046;5.184;2023-09-19T02:42:48;14.60;99.90
15203;DHT22;7702;51.046;5.184;2023-09-19T02:45:17;14.50;99.90
15203;DHT22;7702;51.046;5.184;2023-09-19T02:47:44;14.60;99.90
15203;DHT22;7702;51.046;5.184;2023-09-19T02:50:10;14.60;99.90
15203;DHT22;7702;51.046;5.184;2023-09-19T02:52:42;14.60;99.90
15203;DHT22;7702;51.046;5.184;2023-09-19T02:55:15;14.60;99.90
15203;DHT22;7702;51.046;5.184;2023-09-19T02:57:50;14.50;99.90
15203;DHT22;7702;51.046;5.184;2023-09-19T03:00:17;14.60;99.90
15203;DHT22;7702;51.046;5.184;2023-09-19T03:02:54;14.50;99.90
15203;DHT22;7702;51.046;5.184;2023-09-19T03:05:21;14.50;99.90
15203;DHT22;7702;51.046;5.184;2023-09-19T03:07:47;14.40;99.90
15203;DHT22;7702;51.046;5.184;2023-09-19T03:10:20;14.50;99.90
15203;DHT22;7702;51.046;5.184;2023-09-19T03:12:49;14.50;99.90
15203;DHT22;7702;51.046;5.184;2023-09-19T03:15:15;14.50;99.90
15203;DHT22;7702;51.046;5.184;2023-09-19T03:17:45;14.50;99.90
15203;DHT22;7702;51.046;5.184;2023-09-19T03:20:11;14.50;99.90
15203;DHT22;7702;51.046;5.184;2023-09-19T03:22:39;14.60;99.90
15203;DHT22;7702;51.046;5.184;2023-09-19T03:25:06;14.60;99.90
15203;DHT22;7702;51.046;5.184;2023-09-19T03:27:36;14.60;99.90
15203;DHT22;7702;51.046;5.184;2023-09-19T03:30:03;14.60;99.90
15203;DHT22;7702;51.046;5.184;2023-09-19T03:32:34;14.70;99.90
15203;DHT22;7702;51.046;5.184;2023-09-19T03:35:00;14.70;99.90
15203;DHT22;7702;51.046;5.184;2023-09-19T03:37:26;14.80;99.90
15203;DHT22;7702;51.046;5.184;2023-09-19T03:39:52;14.80;99.90
15203;DHT22;7702;51.046;5.184;2023-09-19T03:42:18;14.80;99.90
15203;DHT22;7702;51.046;5.184;2023-09-19T03:44:50;14.90;99.90
15203;DHT22;7702;51.046;5.184;2023-09-19T03:47:17;14.90;99.90
15203;DHT22;7702;51.046;5.184;2023-09-19T03:49:44;14.90;99.90
15203;DHT22;7702;51.046;5.184;2023-09-19T03:52:10;14.90;99.90
15203;DHT22;7702;51.046;5.184;2023-09-19T03:54:36;14.90;99.90
15203;DHT22;7702;51.046;5.184;2023-09-19T03:57:02;14.90;99.90
15203;DHT22;7702;51.046;5.184;2023-09-19T03:59:28;14.90;99.90
15203;DHT22;7702;51.046;5.184;2023-09-19T04:01:54;14.80;99.90
15203;DHT22;7702;51.046;5.184;2023-09-19T04:04:22;14.80;99.90
15203;DHT22;7702;51.046;5.184;2023-09-19T04:06:53;14.80;99.90
15203;DHT22;7702;51.046;5.184;2023-09-19T04:09:19;14.80;99.90
15203;DHT22;7702;51.046;5.184;2023-09-19T04:11:44;14.80;99.90
15203;DHT22;7702;51.046;5.184;2023-09-19T04:14:10;14.80;99.90
15203;DHT22;7702;51.046;5.184;2023-09-19T04:16:36;14.80;99.90
15203;DHT22;7702;51.046;5.184;2023-09-19T04:19:01;14.90;99.90
15203;DHT22;7702;51.046;5.184;2023-09-19T04:21:28;14.80;99.90
15203;DHT22;7702;51.046;5.184;2023-09-19T04:23:54;14.90;99.90
15203;DHT22;7702;51.046;5.184;2023-09-19T04:26:20;15.00;99.90
15203;DHT22;7702;51.046;5.184;2023-09-19T04:28:47;15.00;99.90
15203;DHT22;7702;51.046;5.184;2023-09-19T04:31:12;15.00;99.90
15203;DHT22;7702;51.046;5.184;2023-09-19T04:33:39;15.00;99.90
15203;DHT22;7702;51.046;5.184;2023-09-19T04:36:06;15.00;99.90
15203;DHT22;7702;51.046;5.184;2023-09-19T04:38:33;15.00;99.90
15203;DHT22;7702;51.046;5.184;2023-09-19T04:40:59;14.90;99.90
15203;DHT22;7702;51.046;5.184;2023-09-19T04:43:26;15.00;99.90
15203;DHT22;7702;51.046;5.184;2023-09-19T04:45:51;14.80;99.90
15203;DHT22;7702;51.046;5.184;2023-09-19T04:48:22;14.80;99.90
15203;DHT22;7702;51.046;5.184;2023-09-19T04:50:49;14.80;99.90
15203;DHT22;7702;51.046;5.184;2023-09-19T04:53:15;14.80;99.90
15203;DHT22;7702;51.046;5.184;2023-09-19T04:55:40;14.70;99.90
15203;DHT22;7702;51.046;5.184;2023-09-19T04:58:06;14.70;99.90
15203;DHT22;7702;51.046;5.184;2023-09-19T05:00:32;14.60;99.90
15203;DHT22;7702;51.046;5.184;2023-09-19T05:03:00;14.60;99.90
15203;DHT22;7702;51.046;5.184;2023-09-19T05:05:26;14.60;99.90
15203;DHT22;7702;51.046;5.184;2023-09-19T05:07:52;14.70;99.90
15203;DHT22;7702;51.046;5.184;2023-09-19T05:10:19;14.70;99.90
15203;DHT22;7702;51.046;5.184;2023-09-19T05:12:45;14.60;99.90
15203;DHT22;7702;51.046;5.184;2023-09-19T05:15:14;14.60;99.90
15203;DHT22;7702;51.046;5.184;2023-09-19T05:17:47;14.60;99.90
15203;DHT22;7702;51.046;5.184;2023-09-19T05:20:12;14.60;99.90
15203;DHT22;7702;51.046;5.184;2023-09-19T05:22:50;14.50;99.90
15203;DHT22;7702;51.046;5.184;2023-09-19T05:25:22;14.40;99.90
15203;DHT22;7702;51.046;5.184;2023-09-19T05:27:48;14.40;99.90
15203;DHT22;7702;51.046;5.184;2023-09-19T05:30:14;14.40;99.90
15203;DHT22;7702;51.046;5.184;2023-09-19T05:32:40;14.40;99.90
15203;DHT22;7702;51.046;5.184;2023-09-19T05:35:06;14.30;99.90
15203;DHT22;7702;51.046;5.184;2023-09-19T05:37:35;14.30;99.90
15203;DHT22;7702;51.046;5.184;2023-09-19T05:40:02;14.20;99.90
15203;DHT22;7702;51.046;5.184;2023-09-19T05:42:32;14.20;99.90
15203;DHT22;7702;51.046;5.184;2023-09-19T05:44:58;14.20;99.90
15203;DHT22;7702;51.046;5.184;2023-09-19T05:47:24;14.20;99.90
15203;DHT22;7702;51.046;5.184;2023-09-19T05:49:50;14.20;99.90
15203;DHT22;7702;51.046;5.184;2023-09-19T05:52:16;14.20;99.90
15203;DHT22;7702;51.046;5.184;2023-09-19T05:54:43;14.20;99.90
15203;DHT22;7702;51.046;5.184;2023-09-19T05:57:09;14.30;99.90
15203;DHT22;7702;51.046;5.184;2023-09-19T05:59:37;14.30;99.90
15203;DHT22;7702;51.046;5.184;2023-09-19T06:02:05;14.30;99.90
15203;DHT22;7702;51.046;5.184;2023-09-19T06:04:32;14.30;99.90
15203;DHT22;7702;51.046;5.184;2023-09-19T06:06:58;14.30;99.90
15203;DHT22;7702;51.046;5.184;2023-09-19T06:09:23;14.40;99.90
15203;DHT22;7702;51.046;5.184;2023-09-19T06:11:49;14.40;99.90
15203;DHT22;7702;51.046;5.184;2023-09-19T06:14:15;14.40;99.90
15203;DHT22;7702;51.046;5.184;2023-09-19T06:16:43;14.50;99.90
15203;DHT22;7702;51.046;5.184;2023-09-19T06:19:09;14.50;99.90
15203;DHT22;7702;51.046;5.184;2023-09-19T06:21:36;14.60;99.90
15203;DHT22;7702;51.046;5.184;2023-09-19T06:24:02;14.60;99.90
15203;DHT22;7702;51.046;5.184;2023-09-19T06:26:28;14.60;99.90
15203;DHT22;7702;51.046;5.184;2023-09-19T06:28:55;14.70;99.90
15203;DHT22;7702;51.046;5.184;2023-09-19T06:31:21;14.80;99.90
15203;DHT22;7702;51.046;5.184;2023-09-19T06:33:48;14.80;99.90
15203;DHT22;7702;51.046;5.184;2023-09-19T06:36:15;14.70;99.90
15203;DHT22;7702;51.046;5.184;2023-09-19T06:38:41;14.80;99.90
15203;DHT22;7702;51.046;5.184;2023-09-19T06:41:07;14.80;99.90
15203;DHT22;7702;51.046;5.184;2023-09-19T06:43:34;14.80;99.90
15203;DHT22;7702;51.046;5.184;2023-09-19T06:46:01;14.90;99.90
15203;DHT22;7702;51.046;5.184;2023-09-19T06:48:26;14.90;99.90
15203;DHT22;7702;51.046;5.184;2023-09-19T06:50:56;15.00;99.90
15203;DHT22;7702;51.046;5.184;2023-09-19T06:53:24;15.10;99.90
15203;DHT22;7702;51.046;5.184;2023-09-19T06:55:51;15.10;99.90
15203;DHT22;7702;51.046;5.184;2023-09-19T06:58:16;15.10;99.90
15203;DHT22;7702;51.046;5.184;2023-09-19T07:00:42;15.20;99.90
15203;DHT22;7702;51.046;5.184;2023-09-19T07:03:09;15.20;99.90
15203;DHT22;7702;51.046;5.184;2023-09-19T07:05:37;15.30;99.90
15203;DHT22;7702;51.046;5.184;2023-09-19T07:08:05;15.30;99.90
15203;DHT22;7702;51.046;5.184;2023-09-19T07:10:32;15.30;99.90
15203;DHT22;7702;51.046;5.184;2023-09-19T07:13:03;15.40;99.90
15203;DHT22;7702;51.046;5.184;2023-09-19T07:15:32;15.50;99.90
15203;DHT22;7702;51.046;5.184;2023-09-19T07:18:02;15.60;99.90
15203;DHT22;7702;51.046;5.184;2023-09-19T07:20:28;15.60;99.90
15203;DHT22;7702;51.046;5.184;2023-09-19T07:22:57;15.70;99.90
15203;DHT22;7702;51.046;5.184;2023-09-19T07:25:25;15.80;99.90
15203;DHT22;7702;51.046;5.184;2023-09-19T07:27:51;15.80;99.90
15203;DHT22;7702;51.046;5.184;2023-09-19T07:30:17;15.90;99.90
15203;DHT22;7702;51.046;5.184;2023-09-19T07:32:43;15.90;99.90
15203;DHT22;7702;51.046;5.184;2023-09-19T07:35:08;15.90;99.90
15203;DHT22;7702;51.046;5.184;2023-09-19T07:37:35;16.00;99.90
15203;DHT22;7702;51.046;5.184;2023-09-19T07:40:02;16.10;99.90
15203;DHT22;7702;51.046;5.184;2023-09-19T07:42:33;16.10;99.90
15203;DHT22;7702;51.046;5.184;2023-09-19T07:45:01;16.20;99.90
15203;DHT22;7702;51.046;5.184;2023-09-19T07:47:26;16.30;99.90
15203;DHT22;7702;51.046;5.184;2023-09-19T07:49:52;16.30;99.90
15203;DHT22;7702;51.046;5.184;2023-09-19T07:52:18;16.40;99.90
15203;DHT22;7702;51.046;5.184;2023-09-19T07:54:44;16.40;99.90
15203;DHT22;7702;51.046;5.184;2023-09-19T07:57:11;16.40;99.90
15203;DHT22;7702;51.046;5.184;2023-09-19T07:59:37;16.50;99.90
15203;DHT22;7702;51.046;5.184;2023-09-19T08:02:05;16.70;99.90
15203;DHT22;7702;51.046;5.184;2023-09-19T08:04:30;16.70;99.90
15203;DHT22;7702;51.046;5.184;2023-09-19T08:06:59;16.80;99.90
15203;DHT22;7702;51.046;5.184;2023-09-19T08:09:26;16.70;99.90
15203;DHT22;7702;51.046;5.184;2023-09-19T08:11:52;16.90;99.90
15203;DHT22;7702;51.046;5.184;2023-09-19T08:14:17;17.00;99.90
15203;DHT22;7702;51.046;5.184;2023-09-19T08:16:43;16.90;99.90
15203;DHT22;7702;51.046;5.184;2023-09-19T08:19:10;16.90;99.90
15203;DHT22;7702;51.046;5.184;2023-09-19T08:21:36;17.00;99.90
15203;DHT22;7702;51.046;5.184;2023-09-19T08:24:02;17.10;99.90
15203;DHT22;7702;51.046;5.184;2023-09-19T08:26:31;17.10;99.90
15203;DHT22;7702;51.046;5.184;2023-09-19T08:28:57;17.30;99.90
15203;DHT22;7702;51.046;5.184;2023-09-19T08:31:23;17.30;99.90
15203;DHT22;7702;51.046;5.184;2023-09-19T08:33:49;17.30;99.90
15203;DHT22;7702;51.046;5.184;2023-09-19T08:36:17;17.40;99.90
15203;DHT22;7702;51.046;5.184;2023-09-19T08:38:42;17.30;99.90
15203;DHT22;7702;51.046;5.184;2023-09-19T08:41:08;17.50;99.90
15203;DHT22;7702;51.046;5.184;2023-09-19T08:43:35;17.50;99.90
15203;DHT22;7702;51.046;5.184;2023-09-19T08:48:32;17.40;99.90
15203;DHT22;7702;51.046;5.184;2023-09-19T08:51:03;17.50;99.90
15203;DHT22;7702;51.046;5.184;2023-09-19T08:53:41;17.80;99.90
15203;DHT22;7702;51.046;5.184;2023-09-19T08:56:10;17.90;99.90
15203;DHT22;7702;51.046;5.184;2023-09-19T08:58:45;18.00;99.90
15203;DHT22;7702;51.046;5.184;2023-09-19T09:01:14;18.10;99.90
15203;DHT22;7702;51.046;5.184;2023-09-19T09:03:41;18.20;99.90
15203;DHT22;7702;51.046;5.184;2023-09-19T09:06:09;18.20;99.90
15203;DHT22;7702;51.046;5.184;2023-09-19T09:08:37;18.20;99.90
15203;DHT22;7702;51.046;5.184;2023-09-19T09:11:03;18.30;99.90
15203;DHT22;7702;51.046;5.184;2023-09-19T09:13:29;18.40;99.90
15203;DHT22;7702;51.046;5.184;2023-09-19T09:15:55;18.70;99.90
15203;DHT22;7702;51.046;5.184;2023-09-19T09:18:21;18.60;99.90
15203;DHT22;7702;51.046;5.184;2023-09-19T09:20:48;18.60;99.90
15203;DHT22;7702;51.046;5.184;2023-09-19T09:23:14;18.80;99.90
15203;DHT22;7702;51.046;5.184;2023-09-19T09:25:56;18.80;99.90
15203;DHT22;7702;51.046;5.184;2023-09-19T09:28:26;18.90;99.90
15203;DHT22;7702;51.046;5.184;2023-09-19T09:30:52;18.80;99.90
15203;DHT22;7702;51.046;5.184;2023-09-19T09:33:18;18.90;99.90
15203;DHT22;7702;51.046;5.184;2023-09-19T09:35:57;18.80;99.90
15203;DHT22;7702;51.046;5.184;2023-09-19T09:38:28;18.80;99.90
15203;DHT22;7702;51.046;5.184;2023-09-19T09:40:58;19.10;99.90
15203;DHT22;7702;51.046;5.184;2023-09-19T09:43:37;19.10;99.90
15203;DHT22;7702;51.046;5.184;2023-09-19T09:46:08;19.20;99.90
15203;DHT22;7702;51.046;5.184;2023-09-19T09:52:06;18.90;99.90
15203;DHT22;7702;51.046;5.184;2023-09-19T09:54:33;18.70;99.90
15203;DHT22;7702;51.046;5.184;2023-09-19T09:57:06;18.50;99.90
15203;DHT22;7702;51.046;5.184;2023-09-19T09:59:55;18.70;99.90
15203;DHT22;7702;51.046;5.184;2023-09-19T10:02:28;19.00;99.90
15203;DHT22;7702;51.046;5.184;2023-09-19T10:04:55;19.00;99.90
15203;DHT22;7702;51.046;5.184;2023-09-19T10:07:44;19.10;99.90
15203;DHT22;7702;51.046;5.184;2023-09-19T10:10:40;19.10;99.90
15203;DHT22;7702;51.046;5.184;2023-09-19T10:13:10;19.00;99.90
15203;DHT22;7702;51.046;5.184;2023-09-19T10:15:48;19.00;99.90
15203;DHT22;7702;51.046;5.184;2023-09-19T10:18:25;19.10;99.90
15203;DHT22;7702;51.046;5.184;2023-09-19T10:20:51;19.20;99.90
15203;DHT22;7702;51.046;5.184;2023-09-19T10:23:19;19.30;99.90
15203;DHT22;7702;51.046;5.184;2023-09-19T10:25:49;19.70;99.90
15203;DHT22;7702;51.046;5.184;2023-09-19T10:28:17;19.70;99.90
15203;DHT22;7702;51.046;5.184;2023-09-19T10:30:47;19.60;99.90
15203;DHT22;7702;51.046;5.184;2023-09-19T10:33:17;19.90;99.90
15203;DHT22;7702;51.046;5.184;2023-09-19T10:35:45;20.30;99.90
15203;DHT22;7702;51.046;5.184;2023-09-19T10:38:12;20.10;99.90
15203;DHT22;7702;51.046;5.184;2023-09-19T10:40:39;20.10;99.90
15203;DHT22;7702;51.046;5.184;2023-09-19T10:43:15;20.20;99.90
15203;DHT22;7702;51.046;5.184;2023-09-19T10:45:44;20.30;99.90
15203;DHT22;7702;51.046;5.184;2023-09-19T10:48:10;20.10;99.90
15203;DHT22;7702;51.046;5.184;2023-09-19T10:50:50;20.40;99.90
15203;DHT22;7702;51.046;5.184;2023-09-19T10:53:17;20.80;99.90
15203;DHT22;7702;51.046;5.184;2023-09-19T10:55:56;20.80;99.90
15203;DHT22;7702;51.046;5.184;2023-09-19T10:58:31;20.70;99.90
15203;DHT22;7702;51.046;5.184;2023-09-19T11:01:04;20.90;99.90
15203;DHT22;7702;51.046;5.184;2023-09-19T11:03:41;20.70;99.90
15203;DHT22;7702;51.046;5.184;2023-09-19T11:06:18;20.60;99.90
15203;DHT22;7702;51.046;5.184;2023-09-19T11:08:59;20.80;99.90
15203;DHT22;7702;51.046;5.184;2023-09-19T11:14:37;20.80;99.90
15203;DHT22;7702;51.046;5.184;2023-09-19T11:30:40;21.10;99.90
15203;DHT22;7702;51.046;5.184;2023-09-19T11:46:55;21.80;99.90
15203;DHT22;7702;51.046;5.184;2023-09-19T11:49:30;21.90;99.90
15203;DHT22;7702;51.046;5.184;2023-09-19T11:51:58;21.50;99.90
15203;DHT22;7702;51.046;5.184;2023-09-19T11:54:27;21.60;99.90
15203;DHT22;7702;51.046;5.184;2023-09-19T11:56:59;21.80;99.90
15203;DHT22;7702;51.046;5.184;2023-09-19T11:59:26;21.80;99.90
15203;DHT22;7702;51.046;5.184;2023-09-19T12:01:58;21.50;99.90
15203;DHT22;7702;51.046;5.184;2023-09-19T12:04:40;21.20;99.90
15203;DHT22;7702;51.046;5.184;2023-09-19T12:07:10;21.40;99.90
15203;DHT22;7702;51.046;5.184;2023-09-19T12:09:43;21.50;99.90
15203;DHT22;7702;51.046;5.184;2023-09-19T12:12:10;21.30;99.90
15203;DHT22;7702;51.046;5.184;2023-09-19T12:14:48;21.00;99.90
15203;DHT22;7702;51.046;5.184;2023-09-19T12:17:13;20.90;99.90
15203;DHT22;7702;51.046;5.184;2023-09-19T12:19:49;20.90;99.90
15203;DHT22;7702;51.046;5.184;2023-09-19T12:22:15;20.90;99.90
15203;DHT22;7702;51.046;5.184;2023-09-19T12:24:41;21.00;99.90
15203;DHT22;7702;51.046;5.184;2023-09-19T12:27:10;21.00;99.90
15203;DHT22;7702;51.046;5.184;2023-09-19T12:29:47;20.70;99.90
15203;DHT22;7702;51.046;5.184;2023-09-19T12:32:34;20.60;99.90
15203;DHT22;7702;51.046;5.184;2023-09-19T12:35:01;20.70;99.90
15203;DHT22;7702;51.046;5.184;2023-09-19T12:37:33;20.60;99.90
15203;DHT22;7702;51.046;5.184;2023-09-19T12:40:08;20.50;99.90
15203;DHT22;7702;51.046;5.184;2023-09-19T12:42:47;20.60;99.90
15203;DHT22;7702;51.046;5.184;2023-09-19T12:45:14;20.50;99.90
15203;DHT22;7702;51.046;5.184;2023-09-19T12:47:41;20.40;99.90
15203;DHT22;7702;51.046;5.184;2023-09-19T12:50:26;20.50;99.90
15203;DHT22;7702;51.046;5.184;2023-09-19T12:52:56;20.50;99.90
15203;DHT22;7702;51.046;5.184;2023-09-19T12:55:29;20.50;99.90
15203;DHT22;7702;51.046;5.184;2023-09-19T12:58:13;20.50;99.90
15203;DHT22;7702;51.046;5.184;2023-09-19T13:00:44;20.50;99.90
15203;DHT22;7702;51.046;5.184;2023-09-19T13:03:19;20.50;99.90
15203;DHT22;7702;51.046;5.184;2023-09-19T13:06:00;20.40;99.90
15203;DHT22;7702;51.046;5.184;2023-09-19T13:11:14;20.20;99.90
15203;DHT22;7702;51.046;5.184;2023-09-19T13:17:00;20.90;99.90
15203;DHT22;7702;51.046;5.184;2023-09-19T13:19:43;21.20;99.90
15203;DHT22;7702;51.046;5.184;2023-09-19T13:22:43;21.20;99.90
15203;DHT22;7702;51.046;5.184;2023-09-19T13:25:15;20.90;99.90
15203;DHT22;7702;51.046;5.184;2023-09-19T13:27:54;20.80;99.90
15203;DHT22;7702;51.046;5.184;2023-09-19T13:30:28;20.80;99.90
15203;DHT22;7702;51.046;5.184;2023-09-19T13:33:08;20.70;99.90
15203;DHT22;7702;51.046;5.184;2023-09-19T13:35:35;20.80;99.90
15203;DHT22;7702;51.046;5.184;2023-09-19T13:38:02;20.60;99.90
15203;DHT22;7702;51.046;5.184;2023-09-19T13:40:27;20.50;99.90
15203;DHT22;7702;51.046;5.184;2023-09-19T13:42:56;20.40;99.90
15203;DHT22;7702;51.046;5.184;2023-09-19T13:45:22;20.30;99.90
15203;DHT22;7702;51.046;5.184;2023-09-19T13:47:50;20.20;99.90
15203;DHT22;7702;51.046;5.184;2023-09-19T13:50:16;20.10;99.90
15203;DHT22;7702;51.046;5.184;2023-09-19T13:52:42;20.10;99.90
15203;DHT22;7702;51.046;5.184;2023-09-19T13:55:09;20.10;99.90
15203;DHT22;7702;51.046;5.184;2023-09-19T13:57:35;19.90;99.90
15203;DHT22;7702;51.046;5.184;2023-09-19T14:00:00;19.90;99.90
15203;DHT22;7702;51.046;5.184;2023-09-19T14:02:26;19.80;99.90
15203;DHT22;7702;51.046;5.184;2023-09-19T14:04:52;19.70;99.90
15203;DHT22;7702;51.046;5.184;2023-09-19T14:07:18;19.70;99.90
15203;DHT22;7702;51.046;5.184;2023-09-19T14:09:45;19.80;99.90
15203;DHT22;7702;51.046;5.184;2023-09-19T14:12:11;19.90;99.90
15203;DHT22;7702;51.046;5.184;2023-09-19T14:14:37;19.80;99.90
15203;DHT22;7702;51.046;5.184;2023-09-19T14:17:04;19.80;99.90
15203;DHT22;7702;51.046;5.184;2023-09-19T14:19:30;19.80;99.90
15203;DHT22;7702;51.046;5.184;2023-09-19T14:21:55;19.80;99.90
15203;DHT22;7702;51.046;5.184;2023-09-19T14:24:22;19.80;99.90
15203;DHT22;7702;51.046;5.184;2023-09-19T14:26:48;19.80;99.90
15203;DHT22;7702;51.046;5.184;2023-09-19T14:29:15;19.70;99.90
15203;DHT22;7702;51.046;5.184;2023-09-19T14:31:41;19.70;99.90
15203;DHT22;7702;51.046;5.184;2023-09-19T14:34:07;19.70;99.90
15203;DHT22;7702;51.046;5.184;2023-09-19T14:36:36;19.70;99.90
15203;DHT22;7702;51.046;5.184;2023-09-19T14:39:04;19.70;99.90
15203;DHT22;7702;51.046;5.184;2023-09-19T14:41:29;19.80;99.90
15203;DHT22;7702;51.046;5.184;2023-09-19T14:43:56;19.80;99.90
15203;DHT22;7702;51.046;5.184;2023-09-19T14:46:22;19.80;99.90
15203;DHT22;7702;51.046;5.184;2023-09-19T14:48:52;19.80;99.90
15203;DHT22;7702;51.046;5.184;2023-09-19T14:51:19;19.90;99.90
15203;DHT22;7702;51.046;5.184;2023-09-19T14:53:45;19.80;99.90
15203;DHT22;7702;51.046;5.184;2023-09-19T14:56:12;20.00;99.90
15203;DHT22;7702;51.046;5.184;2023-09-19T14:58:38;20.10;99.90
15203;DHT22;7702;51.046;5.184;2023-09-19T15:01:06;20.00;99.90
15203;DHT22;7702;51.046;5.184;2023-09-19T15:03:34;20.00;99.90
15203;DHT22;7702;51.046;5.184;2023-09-19T15:06:04;19.90;99.90
15203;DHT22;7702;51.046;5.184;2023-09-19T15:08:34;19.80;99.90
15203;DHT22;7702;51.046;5.184;2023-09-19T15:11:01;19.80;99.90
15203;DHT22;7702;51.046;5.184;2023-09-19T15:13:30;19.80;99.90
15203;DHT22;7702;51.046;5.184;2023-09-19T15:16:00;19.90;99.90
15203;DHT22;7702;51.046;5.184;2023-09-19T15:18:26;19.90;99.90
15203;DHT22;7702;51.046;5.184;2023-09-19T15:20:52;19.90;99.90
15203;DHT22;7702;51.046;5.184;2023-09-19T15:23:18;20.00;99.90
15203;DHT22;7702;51.046;5.184;2023-09-19T15:25:50;20.00;99.90
15203;DHT22;7702;51.046;5.184;2023-09-19T15:28:16;20.00;99.90
15203;DHT22;7702;51.046;5.184;2023-09-19T15:30:42;20.00;99.90
15203;DHT22;7702;51.046;5.184;2023-09-19T15:33:07;20.00;99.90
15203;DHT22;7702;51.046;5.184;2023-09-19T15:35:33;19.80;99.90
15203;DHT22;7702;51.046;5.184;2023-09-19T15:37:59;19.70;99.90
15203;DHT22;7702;51.046;5.184;2023-09-19T15:40:26;19.70;99.90
15203;DHT22;7702;51.046;5.184;2023-09-19T15:42:54;19.70;99.90
15203;DHT22;7702;51.046;5.184;2023-09-19T15:45:19;19.70;99.90
15203;DHT22;7702;51.046;5.184;2023-09-19T15:47:45;19.60;99.90
15203;DHT22;7702;51.046;5.184;2023-09-19T15:50:11;19.70;99.90
15203;DHT22;7702;51.046;5.184;2023-09-19T15:52:39;19.60;99.90
15203;DHT22;7702;51.046;5.184;2023-09-19T15:55:06;19.70;99.90
15203;DHT22;7702;51.046;5.184;2023-09-19T15:57:34;19.60;99.90
15203;DHT22;7702;51.046;5.184;2023-09-19T15:59:59;19.50;99.90
15203;DHT22;7702;51.046;5.184;2023-09-19T16:02:25;19.50;99.90
15203;DHT22;7702;51.046;5.184;2023-09-19T16:04:54;19.50;99.90
15203;DHT22;7702;51.046;5.184;2023-09-19T16:07:19;19.50;99.90
15203;DHT22;7702;51.046;5.184;2023-09-19T16:09:45;19.50;99.90
15203;DHT22;7702;51.046;5.184;2023-09-19T16:12:11;19.50;99.90
15203;DHT22;7702;51.046;5.184;2023-09-19T16:14:39;19.40;99.90
15203;DHT22;7702;51.046;5.184;2023-09-19T16:17:05;19.40;99.90
15203;DHT22;7702;51.046;5.184;2023-09-19T16:19:32;19.40;99.90
15203;DHT22;7702;51.046;5.184;2023-09-19T16:21:58;19.40;99.90
15203;DHT22;7702;51.046;5.184;2023-09-19T16:24:25;19.40;99.90
15203;DHT22;7702;51.046;5.184;2023-09-19T16:26:51;19.30;99.90
15203;DHT22;7702;51.046;5.184;2023-09-19T16:29:18;19.30;99.90
15203;DHT22;7702;51.046;5.184;2023-09-19T16:31:46;19.30;99.90
15203;DHT22;7702;51.046;5.184;2023-09-19T16:34:12;19.20;99.90
15203;DHT22;7702;51.046;5.184;2023-09-19T16:36:39;19.20;99.90
15203;DHT22;7702;51.046;5.184;2023-09-19T16:39:05;19.20;99.90
15203;DHT22;7702;51.046;5.184;2023-09-19T16:41:33;19.20;99.90
15203;DHT22;7702;51.046;5.184;2023-09-19T16:44:00;19.20;99.90
15203;DHT22;7702;51.046;5.184;2023-09-19T16:46:26;19.20;99.90
15203;DHT22;7702;51.046;5.184;2023-09-19T16:48:52;19.10;99.90
15203;DHT22;7702;51.046;5.184;2023-09-19T16:51:18;19.20;99.90